Time;durP1;ratioP1;P1;durP2;ratioP2;P2;SDS_P1;SDS_P2;PMS_P1;PMS_P2;Temp;Humidity;BMP_temperature;BMP_pressure;BME280_temperature;BME280_humidity;BME280_pressure;Samples;Min_cycle;Max_cycle;Signal;HPM_P1;HPM_P2
2021/07/06 00:00:53;;;;;;;;;2.00;2.00;;;;;23.60;55.99;99770.50;5052775;28;46099;-63
2021/07/06 00:03:18;;;;;;;;;2.00;2.00;;;;;23.59;56.50;99771.50;5074356;28;45274;-62
2021/07/06 00:05:44;;;;;;;;;2.67;1.67;;;;;23.59;56.39;99747.13;5068648;28;45343;-62
2021/07/06 00:08:09;;;;;;;;;3.00;3.00;;;;;23.58;56.59;99753.53;5059356;28;48490;-61
2021/07/06 00:10:36;;;;;;;;;3.33;2.33;;;;;23.58;56.43;99761.66;5059820;28;45805;-62
2021/07/06 00:13:02;;;;;;;;;2.33;2.33;;;;;23.57;56.65;99771.59;5040893;28;45453;-63
2021/07/06 00:15:27;;;;;;;;;2.00;2.00;;;;;23.56;56.33;99767.19;5059571;28;47027;-62
2021/07/06 00:17:56;;;;;;;;;2.67;2.67;;;;;23.57;56.52;99760.75;5062567;28;47340;-62
2021/07/06 00:20:26;;;;;;;;;2.00;2.00;;;;;23.56;56.52;99756.34;5060381;28;45429;-62
2021/07/06 00:22:52;;;;;;;;;3.00;3.00;;;;;23.55;56.60;99738.38;5067762;28;45704;-62
2021/07/06 00:25:17;;;;;;;;;2.00;1.00;;;;;23.55;56.52;99738.38;5061304;28;46662;-62
2021/07/06 00:27:43;;;;;;;;;1.67;1.67;;;;;23.55;56.37;99732.97;5071053;28;47133;-62
2021/07/06 00:30:09;;;;;;;;;1.00;1.00;;;;;23.55;56.55;99721.28;5066754;28;45425;-62
2021/07/06 00:32:35;;;;;;;;;2.00;2.00;;;;;23.54;56.11;99720.44;5065950;28;45819;-62
2021/07/06 00:35:01;;;;;;;;;1.33;1.33;;;;;23.54;56.31;99733.97;5051772;28;45475;-62
2021/07/06 00:37:26;;;;;;;;;2.00;2.00;;;;;23.52;55.99;99732.41;5063568;28;45508;-62
2021/07/06 00:39:53;;;;;;;;;1.00;1.00;;;;;23.51;55.99;99726.13;5054472;28;45444;-62
2021/07/06 00:42:18;;;;;;;;;2.00;2.00;;;;;23.49;56.07;99723.53;5066784;28;45480;-62
2021/07/06 00:44:46;;;;;;;;;1.00;1.00;;;;;23.50;55.94;99713.56;5041646;28;45379;-61
2021/07/06 00:47:11;;;;;;;;;1.33;1.33;;;;;23.49;56.21;99717.25;5052415;28;46881;-61
2021/07/06 00:49:37;;;;;;;;;1.67;1.67;;;;;23.48;55.54;99729.94;5059892;28;45535;-61
2021/07/06 00:52:04;;;;;;;;;0.00;0.00;;;;;23.48;55.72;99739.94;5055961;28;45340;-63
2021/07/06 00:54:30;;;;;;;;;1.33;1.33;;;;;23.45;55.96;99735.66;5068886;28;45511;-62
2021/07/06 00:56:56;;;;;;;;;1.00;1.00;;;;;23.45;55.45;99722.13;5063764;28;47040;-62
2021/07/06 00:59:22;;;;;;;;;1.00;1.00;;;;;23.42;55.69;99733.22;5054868;28;45419;-61
2021/07/06 01:01:49;;;;;;;;;0.00;0.00;;;;;23.40;55.55;99735.22;5067112;28;45781;-61
2021/07/06 01:04:14;;;;;;;;;1.00;1.00;;;;;23.37;55.55;99734.63;5063173;28;46017;-61
2021/07/06 01:06:40;;;;;;;;;1.67;0.33;;;;;23.36;55.21;99744.59;5066490;28;47156;-61
2021/07/06 01:09:05;;;;;;;;;1.00;1.00;;;;;23.36;55.79;99736.47;5064186;28;45681;-61
2021/07/06 01:11:33;;;;;;;;;1.00;1.00;;;;;23.32;55.29;99745.88;5062662;28;45630;-63
2021/07/06 01:13:59;;;;;;;;;1.00;1.00;;;;;23.32;55.45;99736.91;5054470;28;45543;-62
2021/07/06 01:16:24;;;;;;;;;0.00;0.00;;;;;23.31;55.17;99737.91;5073231;28;47116;-62
2021/07/06 01:18:50;;;;;;;;;1.33;0.33;;;;;23.29;55.38;99739.91;5075956;27;45882;-62
2021/07/06 01:21:15;;;;;;;;;0.00;0.00;;;;;23.26;55.27;99745.59;5070679;28;46346;-62
2021/07/06 01:23:41;;;;;;;;;0.00;0.00;;;;;23.23;55.14;99760.22;5074884;27;45651;-62
2021/07/06 01:26:08;;;;;;;;;0.67;0.67;;;;;23.21;55.21;99770.34;5062285;28;45639;-61
2021/07/06 01:28:35;;;;;;;;;1.00;1.00;;;;;23.17;54.82;99769.78;5052703;28;45720;-62
2021/07/06 01:31:01;;;;;;;;;0.00;0.00;;;;;23.17;55.05;99766.22;5065999;28;45449;-61
2021/07/06 01:33:28;;;;;;;;;0.00;0.00;;;;;23.16;54.73;99759.94;5069847;28;45521;-61
2021/07/06 01:36:01;;;;;;;;;0.00;0.00;;;;;23.13;54.84;99762.06;5073222;27;47599;-62
2021/07/06 01:38:27;;;;;;;;;0.33;0.33;;;;;23.12;54.75;99768.44;5072901;28;45608;-62
2021/07/06 01:40:53;;;;;;;;;0.33;0.33;;;;;23.10;55.23;99760.47;5070344;28;46208;-61
2021/07/06 01:43:19;;;;;;;;;0.00;0.00;;;;;23.09;54.91;99763.31;5060197;28;45637;-62
2021/07/06 01:45:45;;;;;;;;;0.00;0.00;;;;;23.07;54.97;99760.75;5061240;27;47213;-61
2021/07/06 01:48:11;;;;;;;;;0.67;0.00;;;;;23.07;55.07;99765.31;5068897;28;45847;-62
2021/07/06 01:50:41;;;;;;;;;0.67;0.67;;;;;23.04;54.90;99754.75;5072412;28;46621;-61
2021/07/06 01:53:10;;;;;;;;;1.00;0.00;;;;;23.04;54.40;99755.63;5072638;28;45578;-62
2021/07/06 01:55:39;;;;;;;;;0.00;0.00;;;;;23.02;54.49;99763.03;5070760;27;47014;-61
2021/07/06 01:58:08;;;;;;;;;0.67;0.67;;;;;22.99;54.35;99765.97;5070582;28;45778;-62
2021/07/06 02:00:37;;;;;;;;;0.00;0.00;;;;;22.97;54.73;99781.50;5073023;28;45306;-61
2021/07/06 02:03:04;;;;;;;;;0.00;0.00;;;;;22.94;54.03;99789.88;5063228;28;45687;-62
2021/07/06 02:05:39;;;;;;;;;0.00;0.00;;;;;22.91;53.98;99803.69;5064258;28;47353;-61
2021/07/06 02:08:11;;;;;;;;;0.00;0.00;;;;;22.88;54.18;99817.50;5072669;28;46326;-62
2021/07/06 02:10:37;;;;;;;;;0.00;0.00;;;;;22.86;54.03;99824.84;5071610;28;45479;-62
2021/07/06 02:13:08;;;;;;;;;0.00;0.00;;;;;22.84;53.74;99802.50;5062178;27;45577;-61
2021/07/06 02:15:34;;;;;;;;;0.00;0.00;;;;;22.81;53.68;99822.53;5056228;28;46563;-61
2021/07/06 02:17:59;;;;;;;;;0.00;0.00;;;;;22.78;53.71;99830.94;5057770;28;45580;-62
2021/07/06 02:20:25;;;;;;;;;0.00;0.00;;;;;22.75;53.40;99838.44;5072076;28;45705;-62
2021/07/06 02:22:51;;;;;;;;;0.00;0.00;;;;;22.74;53.44;99850.22;5041033;28;45604;-62
2021/07/06 02:25:19;;;;;;;;;2.00;0.00;;;;;22.70;53.55;99851.50;5067114;28;47561;-62
2021/07/06 02:27:47;;;;;;;;;0.00;0.00;;;;;22.68;54.10;99853.47;5065678;28;46103;-63
2021/07/06 02:30:19;;;;;;;;;0.00;0.00;;;;;22.66;53.76;99852.75;5066454;28;45719;-62
2021/07/06 02:32:47;;;;;;;;;1.00;1.00;;;;;22.64;54.03;99846.63;5067503;28;45513;-62
2021/07/06 02:35:13;;;;;;;;;0.00;0.00;;;;;22.61;53.86;99870.25;5071726;28;47260;-62
2021/07/06 02:37:39;;;;;;;;;0.00;0.00;;;;;22.59;53.28;99871.34;5067357;27;45374;-63
2021/07/06 02:40:07;;;;;;;;;1.33;0.00;;;;;22.54;53.02;99865.47;5064246;27;45316;-62
2021/07/06 02:42:32;;;;;;;;;0.00;0.00;;;;;22.50;52.98;99864.88;5050660;28;45721;-62
2021/07/06 02:44:58;;;;;;;;;0.00;0.00;;;;;22.46;52.95;99852.59;5071372;28;47325;-62
2021/07/06 02:47:23;;;;;;;;;0.33;0.33;;;;;22.42;52.72;99826.81;5071153;27;45442;-62
2021/07/06 02:49:49;;;;;;;;;0.67;0.00;;;;;22.40;53.03;99834.22;5068173;28;45644;-62
2021/07/06 02:52:14;;;;;;;;;0.00;0.00;;;;;22.37;52.96;99853.41;5067993;27;45463;-62
2021/07/06 02:54:40;;;;;;;;;0.00;0.00;;;;;22.34;53.02;99861.75;5066087;28;48391;-62
2021/07/06 02:57:09;;;;;;;;;0.00;0.00;;;;;22.33;53.25;99876.25;5068615;27;46055;-62
2021/07/06 02:59:34;;;;;;;;;0.00;0.00;;;;;22.30;53.34;99852.19;5070470;28;45395;-62
2021/07/06 03:02:00;;;;;;;;;0.00;0.00;;;;;22.29;53.72;99855.88;5063678;28;45755;-62
2021/07/06 03:04:25;;;;;;;;;0.00;0.00;;;;;22.29;53.90;99847.75;5047693;28;47306;-62
2021/07/06 03:06:51;;;;;;;;;0.00;0.00;;;;;22.28;53.71;99864.97;5071568;28;46931;-62
2021/07/06 03:09:17;;;;;;;;;1.67;0.33;;;;;22.25;54.26;99863.38;5059292;28;45757;-62
2021/07/06 03:11:44;;;;;;;;;0.00;0.00;;;;;22.25;53.89;99862.53;5069716;28;45834;-63
2021/07/06 03:14:09;;;;;;;;;1.00;1.00;;;;;22.22;54.15;99871.72;5050685;28;46978;-62
2021/07/06 03:16:35;;;;;;;;;0.00;0.00;;;;;22.21;54.09;99871.88;5057736;28;45350;-62
2021/07/06 03:19:00;;;;;;;;;0.00;0.00;;;;;22.19;53.81;99854.94;5072333;27;45373;-62
2021/07/06 03:21:26;;;;;;;;;0.00;0.00;;;;;22.15;53.81;99858.88;5075408;28;45412;-62
2021/07/06 03:23:51;;;;;;;;;1.00;0.00;;;;;22.12;53.90;99853.75;5062761;28;47739;-62
2021/07/06 03:26:17;;;;;;;;;1.00;0.00;;;;;22.11;54.60;99849.31;5064758;28;45385;-62
2021/07/06 03:28:42;;;;;;;;;0.00;0.00;;;;;22.13;53.83;99847.34;5072482;28;45521;-62
2021/07/06 03:31:08;;;;;;;;;0.00;0.00;;;;;22.10;53.92;99848.44;5048325;27;45376;-62
2021/07/06 03:33:33;;;;;;;;;0.00;0.00;;;;;22.08;53.84;99849.56;5063649;28;45569;-62
2021/07/06 03:35:59;;;;;;;;;0.00;0.00;;;;;22.04;53.52;99849.78;5060898;28;45548;-62
2021/07/06 03:38:24;;;;;;;;;0.00;0.00;;;;;22.02;53.57;99837.38;5049781;28;45443;-62
2021/07/06 03:40:50;;;;;;;;;1.00;1.00;;;;;22.00;54.19;99831.25;5059502;28;45312;-62
2021/07/06 03:43:15;;;;;;;;;0.00;0.00;;;;;21.98;53.80;99838.63;5072512;28;47319;-62
2021/07/06 03:45:41;;;;;;;;;0.00;0.00;;;;;21.94;53.48;99837.16;5056965;27;45370;-62
2021/07/06 03:48:06;;;;;;;;;0.00;0.00;;;;;21.91;53.63;99835.56;5047543;28;45752;-62
2021/07/06 03:50:32;;;;;;;;;1.00;1.00;;;;;21.89;53.39;99844.78;5066645;28;45555;-62
2021/07/06 03:52:59;;;;;;;;;0.00;0.00;;;;;21.84;53.62;99847.84;5070992;28;46304;-62
2021/07/06 03:55:25;;;;;;;;;1.67;1.00;;;;;21.81;54.12;99877.81;5063370;28;45338;-61
2021/07/06 03:57:52;;;;;;;;;0.00;0.00;;;;;21.75;53.67;99867.53;5051040;28;45628;-62
2021/07/06 04:00:28;;;;;;;;;0.00;0.00;;;;;21.71;53.67;99866.91;5058574;28;45555;-63
2021/07/06 04:02:55;;;;;;;;;1.00;0.00;;;;;21.67;53.70;99873.56;5052551;28;47330;-62
2021/07/06 04:05:21;;;;;;;;;0.00;0.00;;;;;21.65;53.68;99863.88;5061749;28;45880;-60
2021/07/06 04:07:47;;;;;;;;;0.00;0.00;;;;;21.62;53.94;99872.22;5062964;28;45763;-62
2021/07/06 04:10:16;;;;;;;;;0.33;0.33;;;;;21.59;53.37;99873.31;5049275;28;45542;-61
2021/07/06 04:12:42;;;;;;;;;0.33;0.33;;;;;21.56;53.75;99868.16;5066627;28;48603;-61
2021/07/06 04:15:11;;;;;;;;;0.67;0.67;;;;;21.54;53.75;99877.38;5068140;27;45434;-63
2021/07/06 04:17:37;;;;;;;;;0.33;0.33;;;;;21.49;53.02;99866.94;5053598;28;45467;-62
2021/07/06 04:20:04;;;;;;;;;0.00;0.00;;;;;21.44;52.62;99874.53;5062266;28;45695;-62
2021/07/06 04:22:29;;;;;;;;;1.00;0.00;;;;;21.37;52.57;99876.88;5064088;27;47181;-62
2021/07/06 04:24:55;;;;;;;;;0.00;0.00;;;;;21.34;52.30;99893.34;5070461;27;45709;-62
2021/07/06 04:27:20;;;;;;;;;0.00;0.00;;;;;21.32;52.54;99886.31;5058322;28;45430;-62
2021/07/06 04:29:47;;;;;;;;;1.00;0.00;;;;;21.29;52.72;99891.97;5061086;28;45345;-61
2021/07/06 04:32:16;;;;;;;;;0.00;0.00;;;;;21.28;52.47;99898.34;5048716;28;46374;-62
2021/07/06 04:34:42;;;;;;;;;0.00;0.00;;;;;21.29;52.64;99894.66;5056862;27;46910;-62
2021/07/06 04:37:08;;;;;;;;;1.00;1.00;;;;;21.29;52.22;99900.06;5065890;27;45724;-62
2021/07/06 04:39:33;;;;;;;;;0.67;0.67;;;;;21.27;52.48;99900.19;5065443;28;45761;-61
2021/07/06 04:41:59;;;;;;;;;0.67;0.00;;;;;21.27;52.57;99907.41;5064266;28;47040;-62
2021/07/06 04:44:25;;;;;;;;;1.33;1.33;;;;;21.26;52.68;99911.97;5064020;28;45389;-62
2021/07/06 04:46:50;;;;;;;;;2.33;0.67;;;;;21.27;51.97;99916.38;5046296;28;45520;-62
2021/07/06 04:49:16;;;;;;;;;0.00;0.00;;;;;21.25;52.54;99915.63;5046957;28;47056;-63
2021/07/06 04:51:41;;;;;;;;;0.00;0.00;;;;;21.24;52.07;99919.28;5065950;28;45338;-46
2021/07/06 04:54:06;;;;;;;;;1.00;0.33;;;;;21.19;51.88;99910.69;5075910;28;45370;-49
2021/07/06 04:56:32;;;;;;;;;1.00;1.00;;;;;21.16;51.67;99925.28;5049855;28;45493;-47
2021/07/06 04:58:58;;;;;;;;;1.00;1.00;;;;;21.11;51.07;99919.38;5068290;28;45414;-46
2021/07/06 05:01:23;;;;;;;;;1.00;0.00;;;;;21.07;51.34;99923.28;5058834;28;47068;-45
2021/07/06 05:03:50;;;;;;;;;1.00;1.00;;;;;21.04;51.43;99922.66;5066613;28;45681;-47
2021/07/06 05:06:19;;;;;;;;;1.00;1.00;;;;;21.02;51.06;99930.88;5048616;28;45797;-47
2021/07/06 05:08:46;;;;;;;;;0.00;0.00;;;;;21.01;51.02;99925.63;5059191;28;45531;-48
2021/07/06 05:11:12;;;;;;;;;0.67;0.67;;;;;21.01;50.88;99931.00;5072136;28;45405;-49
2021/07/06 05:13:38;;;;;;;;;0.00;0.00;;;;;20.98;50.61;99921.31;5080028;27;45724;-49
2021/07/06 05:16:04;;;;;;;;;1.33;0.00;;;;;20.95;51.18;99923.38;5080706;27;45668;-51
2021/07/06 05:18:29;;;;;;;;;1.00;1.00;;;;;20.94;51.13;99935.16;5050492;28;45508;-50
2021/07/06 05:20:55;;;;;;;;;1.00;1.00;;;;;20.93;50.59;99922.63;5059808;28;46245;-47
2021/07/06 05:23:21;;;;;;;;;1.33;0.33;;;;;20.90;50.83;99923.75;5060350;28;45407;-49
2021/07/06 05:25:46;;;;;;;;;1.00;1.00;;;;;20.90;50.88;99920.19;5054885;28;45762;-46
2021/07/06 05:28:12;;;;;;;;;1.00;1.00;;;;;20.89;50.47;99940.91;5068471;27;45528;-47
2021/07/06 05:30:38;;;;;;;;;1.00;1.00;;;;;20.88;50.35;99951.81;5060854;28;45389;-51
2021/07/06 05:33:04;;;;;;;;;1.00;0.33;;;;;20.85;50.40;99942.97;5071395;28;46649;-52
2021/07/06 05:35:29;;;;;;;;;1.00;1.00;;;;;20.83;50.02;99944.94;5061375;28;45301;-48
2021/07/06 05:37:55;;;;;;;;;0.00;0.00;;;;;20.81;50.37;99952.25;5068921;28;45329;-47
2021/07/06 05:40:21;;;;;;;;;0.00;0.00;;;;;20.81;49.65;99962.19;5080270;28;46251;-52
2021/07/06 05:42:46;;;;;;;;;1.00;1.00;;;;;20.77;50.03;99960.72;5080028;28;45417;-48
2021/07/06 05:45:13;;;;;;;;;1.00;1.00;;;;;20.77;49.66;99948.09;5076805;28;45282;-50
2021/07/06 05:47:40;;;;;;;;;1.00;1.00;;;;;20.79;49.67;99966.84;5064761;27;45620;-47
2021/07/06 05:50:08;;;;;;;;;0.33;0.33;;;;;20.78;49.21;99954.34;5060419;28;47521;-48
2021/07/06 05:52:34;;;;;;;;;1.33;1.00;;;;;20.78;49.15;99966.00;5041788;28;45795;-49
2021/07/06 05:55:01;;;;;;;;;1.00;1.00;;;;;20.75;49.55;99965.38;5063527;28;45526;-52
2021/07/06 05:57:29;;;;;;;;;0.67;0.00;;;;;20.73;49.20;99973.59;5069502;28;45590;-47
2021/07/06 05:59:59;;;;;;;;;1.67;0.67;;;;;20.72;49.56;99973.69;5068045;28;47347;-51
2021/07/06 06:02:26;;;;;;;;;0.00;0.00;;;;;20.68;49.23;99974.88;5059924;28;45767;-50
2021/07/06 06:04:52;;;;;;;;;1.67;1.67;;;;;20.64;49.57;99976.09;5075144;28;45634;-48
2021/07/06 06:07:18;;;;;;;;;4.00;2.33;;;;;20.61;49.57;99968.25;5062482;28;45354;-50
2021/07/06 06:09:43;;;;;;;;;2.00;1.00;;;;;20.61;49.18;99979.03;5080057;27;47355;-47
2021/07/06 06:12:10;;;;;;;;;1.33;1.33;;;;;20.66;48.85;99971.44;5079800;28;45590;-50
2021/07/06 06:14:39;;;;;;;;;0.00;0.00;;;;;20.71;49.41;99986.31;5062144;28;45849;-47
2021/07/06 06:17:04;;;;;;;;;3.67;1.00;;;;;20.74;48.90;99994.19;5075531;28;45293;-48
2021/07/06 06:19:30;;;;;;;;;3.00;2.00;;;;;20.80;49.35;100000.94;5053887;28;48107;-51
2021/07/06 06:21:55;;;;;;;;;2.00;2.00;;;;;20.89;49.01;99999.38;5061233;28;45302;-48
2021/07/06 06:24:21;;;;;;;;;2.00;2.00;;;;;20.96;49.37;99985.31;5059690;28;45334;-48
2021/07/06 06:26:49;;;;;;;;;4.00;4.00;;;;;21.01;48.59;99991.22;5059613;28;45344;-50
2021/07/06 06:29:14;;;;;;;;;1.67;1.33;;;;;21.06;48.83;99993.56;5059872;28;46319;-49
2021/07/06 06:31:40;;;;;;;;;2.00;2.00;;;;;21.11;48.40;99994.94;5078455;28;45576;-50
2021/07/06 06:34:05;;;;;;;;;1.00;1.00;;;;;21.11;48.05;100007.56;5080119;28;45269;-51
2021/07/06 06:36:31;;;;;;;;;1.00;1.00;;;;;21.10;48.43;100016.63;5080035;28;45289;-49
2021/07/06 06:38:56;;;;;;;;;2.00;2.00;;;;;21.09;48.27;100009.53;5062632;28;46990;-49
2021/07/06 06:41:22;;;;;;;;;1.33;1.33;;;;;21.06;48.41;100004.34;5059469;28;45745;-47
2021/07/06 06:43:47;;;;;;;;;1.67;1.00;;;;;21.04;48.32;100012.56;5059791;28;45726;-48
2021/07/06 06:46:13;;;;;;;;;2.00;2.00;;;;;21.04;48.38;100023.34;5071499;27;45774;-49
2021/07/06 06:48:38;;;;;;;;;2.00;2.00;;;;;21.01;47.71;100023.59;5071344;27;48170;-51
2021/07/06 06:51:04;;;;;;;;;1.67;1.67;;;;;21.00;48.08;100021.00;5059771;28;45856;-47
2021/07/06 06:53:29;;;;;;;;;2.00;2.00;;;;;21.02;48.11;100032.53;5059708;28;45348;-48
2021/07/06 06:55:55;;;;;;;;;2.00;1.00;;;;;21.02;48.02;100028.00;5041252;28;45696;-47
2021/07/06 06:58:20;;;;;;;;;2.33;1.33;;;;;21.03;47.56;100040.50;5059551;28;47013;-50
2021/07/06 07:00:45;;;;;;;;;3.00;1.00;;;;;21.03;47.93;100037.81;5059143;28;45680;-51
2021/07/06 07:03:11;;;;;;;;;1.33;1.33;;;;;21.02;47.54;100029.84;5066668;28;45296;-52
2021/07/06 07:05:36;;;;;;;;;2.33;1.33;;;;;21.03;47.86;100043.22;5066126;28;45386;-48
2021/07/06 07:08:02;;;;;;;;;4.00;2.00;;;;;21.06;48.16;100036.72;5059063;28;47090;-50
2021/07/06 07:10:28;;;;;;;;;1.00;1.00;;;;;21.09;47.66;100045.47;5059354;28;45894;-48
2021/07/06 07:12:54;;;;;;;;;1.67;1.00;;;;;21.10;48.39;100049.88;5059012;28;45409;-48
2021/07/06 07:15:20;;;;;;;;;1.67;1.33;;;;;21.12;47.88;100052.44;5041444;28;45584;-49
2021/07/06 07:17:46;;;;;;;;;1.00;1.00;;;;;21.15;48.23;100071.09;5059496;28;45297;-51
2021/07/06 07:20:12;;;;;;;;;2.33;1.00;;;;;21.17;48.31;100071.84;5059094;28;45893;-51
2021/07/06 07:22:39;;;;;;;;;1.33;1.33;;;;;21.16;48.24;100065.59;5059103;28;45621;-48
2021/07/06 07:25:05;;;;;;;;;3.00;1.67;;;;;21.16;48.32;100075.50;5059128;28;45371;-50
2021/07/06 07:27:31;;;;;;;;;2.00;2.00;;;;;21.17;47.66;100069.13;5040909;28;48374;-48
2021/07/06 07:29:57;;;;;;;;;2.00;2.00;;;;;21.18;48.03;100081.66;5057839;28;45609;-49
2021/07/06 07:32:23;;;;;;;;;3.00;2.00;;;;;21.22;47.86;100079.59;5041273;28;45540;-50
2021/07/06 07:34:49;;;;;;;;;2.00;2.00;;;;;21.23;48.00;100078.63;5058787;28;45537;-48
2021/07/06 07:37:16;;;;;;;;;1.33;1.33;;;;;21.22;48.07;100074.22;5040503;28;47460;-51
2021/07/06 07:39:44;;;;;;;;;3.67;2.00;;;;;21.23;48.16;100082.19;5058490;28;45386;-50
2021/07/06 07:42:10;;;;;;;;;1.67;1.00;;;;;21.28;48.00;100087.25;5058362;28;45672;-47
2021/07/06 07:44:36;;;;;;;;;4.00;2.33;;;;;21.30;47.88;100086.16;5063214;28;45236;-45
2021/07/06 07:47:02;;;;;;;;;3.00;3.00;;;;;21.33;48.03;100096.72;5060591;27;46991;-50
2021/07/06 07:49:28;;;;;;;;;1.00;1.00;;;;;21.38;47.92;100086.44;5067267;28;45498;-48
2021/07/06 07:51:53;;;;;;;;;2.67;2.67;;;;;21.43;47.73;100095.03;5070341;28;45301;-48
2021/07/06 07:54:19;;;;;;;;;4.00;3.00;;;;;21.50;47.69;100087.34;5074011;28;45634;-51
2021/07/06 07:56:45;;;;;;;;;3.00;2.00;;;;;21.58;47.79;100097.53;5035006;28;46889;-49
2021/07/06 07:59:10;;;;;;;;;6.00;4.00;;;;;21.67;48.01;100104.94;5060231;28;45814;-48
2021/07/06 08:01:37;;;;;;;;;1.67;1.67;;;;;21.77;47.89;100091.56;5058358;28;45534;-50
2021/07/06 08:04:02;;;;;;;;;3.00;2.00;;;;;21.81;47.67;100098.44;5058725;28;45401;-48
2021/07/06 08:06:28;;;;;;;;;2.00;2.00;;;;;21.82;47.56;100106.44;5060465;28;47041;-49
2021/07/06 08:08:54;;;;;;;;;4.67;4.00;;;;;21.79;46.98;100109.38;5078292;28;45767;-51
2021/07/06 08:11:20;;;;;;;;;1.33;1.33;;;;;21.74;47.18;100114.28;5078530;28;45452;-50
2021/07/06 08:13:46;;;;;;;;;4.00;2.33;;;;;21.72;47.59;100114.41;5078746;28;45499;-51
2021/07/06 08:16:12;;;;;;;;;1.00;1.00;;;;;21.72;47.24;100127.91;5072093;28;47950;-47
2021/07/06 08:18:38;;;;;;;;;2.00;2.00;;;;;21.70;47.68;100135.25;5060227;28;46293;-49
2021/07/06 08:21:04;;;;;;;;;3.00;3.00;;;;;21.70;47.71;100129.84;5064836;28;45233;-47
2021/07/06 08:23:29;;;;;;;;;2.00;2.00;;;;;21.71;47.71;100131.56;5060829;28;45367;-48
2021/07/06 08:25:55;;;;;;;;;3.67;2.00;;;;;21.72;47.09;100141.41;5078246;28;47335;-49
2021/07/06 08:28:22;;;;;;;;;1.33;1.33;;;;;21.73;47.65;100142.28;5082112;28;45797;-50
2021/07/06 08:30:48;;;;;;;;;7.50;5.25;;;;;21.77;47.58;100151.00;5082098;28;45426;-51
2021/07/06 08:33:14;;;;;;;;;5.00;3.33;;;;;21.79;47.52;100158.00;5082331;28;45337;-49
2021/07/06 08:35:39;;;;;;;;;3.33;2.33;;;;;21.79;46.57;100159.84;5063718;28;45427;-52
2021/07/06 08:38:05;;;;;;;;;4.00;2.67;;;;;21.78;46.68;100155.41;5072145;28;46147;-49
2021/07/06 08:40:30;;;;;;;;;2.00;2.00;;;;;21.83;47.01;100158.59;5060233;28;45374;-46
2021/07/06 08:42:59;;;;;;;;;2.00;2.00;;;;;21.90;47.50;100158.03;5043773;28;45284;-47
2021/07/06 08:45:26;;;;;;;;;3.33;2.00;;;;;21.94;46.52;100156.81;5064989;28;48324;-51
2021/07/06 08:47:54;;;;;;;;;5.00;3.33;;;;;21.96;47.03;100175.59;5071219;27;45408;-50
2021/07/06 08:50:22;;;;;;;;;3.33;2.00;;;;;21.97;46.58;100159.25;5061708;28;45441;-50
2021/07/06 08:52:47;;;;;;;;;2.00;2.00;;;;;22.02;46.49;100156.22;5061496;28;45550;-47
2021/07/06 08:55:15;;;;;;;;;2.00;2.00;;;;;22.03;46.73;100161.50;5077695;27;46301;-48
2021/07/06 08:57:44;;;;;;;;;1.00;1.00;;;;;22.03;46.34;100168.75;5081620;27;45317;-46
2021/07/06 09:00:12;;;;;;;;;3.00;2.33;;;;;22.07;46.77;100167.53;5081470;28;45299;-49
2021/07/06 09:02:37;;;;;;;;;4.00;3.33;;;;;22.16;46.39;100180.34;5063599;28;45390;-51
2021/07/06 09:05:04;;;;;;;;;2.33;2.33;;;;;22.21;46.46;100169.16;5081458;28;47293;-51
2021/07/06 09:07:41;;;;;;;;;3.00;3.00;;;;;22.23;45.89;100181.59;5063791;28;46085;-50
2021/07/06 09:10:15;;;;;;;;;4.00;4.00;;;;;22.24;45.98;100191.44;5063532;28;45661;-51
2021/07/06 09:12:40;;;;;;;;;2.00;2.00;;;;;22.24;45.47;100183.31;5081978;28;45564;-51
2021/07/06 09:15:26;;;;;;;;;3.33;2.00;;;;;22.25;46.00;100182.34;5080123;28;47205;-48
2021/07/06 09:18:05;;;;;;;;;2.33;2.33;;;;;22.26;45.42;100194.00;5061783;28;45664;-50
2021/07/06 09:20:32;;;;;;;;;1.33;1.33;;;;;22.27;45.65;100187.63;5068428;28;45727;-52
2021/07/06 09:23:25;;;;;;;;;3.00;3.00;;;;;22.28;45.57;100194.75;5082152;28;45356;-50
2021/07/06 09:26:03;;;;;;;;;3.33;2.00;;;;;22.31;45.64;100191.78;5062945;28;47093;-52
2021/07/06 09:28:32;;;;;;;;;2.00;2.00;;;;;22.37;45.96;100190.47;5063094;28;45951;-51
2021/07/06 09:31:01;;;;;;;;;3.00;3.00;;;;;22.46;45.87;100187.00;5081242;27;45557;-52
2021/07/06 09:33:28;;;;;;;;;3.67;3.00;;;;;22.46;45.12;100195.13;5081317;28;45539;-49
2021/07/06 09:35:55;;;;;;;;;3.00;3.00;;;;;22.39;45.30;100197.47;5080984;28;46782;-51
2021/07/06 09:38:20;;;;;;;;;1.00;1.00;;;;;22.34;45.18;100199.66;5067818;28;45266;-51
2021/07/06 09:40:47;;;;;;;;;2.00;2.00;;;;;22.29;45.57;100193.75;5060491;28;45324;-49
2021/07/06 09:43:28;;;;;;;;;2.67;2.33;;;;;22.25;45.27;100206.66;5061235;28;45473;-53
2021/07/06 09:45:54;;;;;;;;;1.00;1.00;;;;;22.25;45.68;100211.22;5062723;27;47507;-49
2021/07/06 09:48:20;;;;;;;;;2.00;2.00;;;;;22.30;45.56;100209.84;5045836;28;45635;-49
2021/07/06 09:50:45;;;;;;;;;2.00;2.00;;;;;22.40;45.74;100209.13;5062855;28;45355;-53
2021/07/06 09:53:32;;;;;;;;;2.00;2.00;;;;;22.54;45.31;100215.16;5073539;28;45320;-49
2021/07/06 09:55:58;;;;;;;;;1.67;1.33;;;;;22.65;44.75;100195.38;5080343;28;47430;-50
2021/07/06 09:58:24;;;;;;;;;1.67;1.67;;;;;22.75;45.07;100187.41;5080284;27;45651;-47
2021/07/06 10:00:52;;;;;;;;;2.67;1.00;;;;;22.86;44.78;100200.94;5074138;28;45474;-47
2021/07/06 10:03:19;;;;;;;;;2.33;1.00;;;;;22.90;44.30;100214.09;5060645;28;45473;-50
2021/07/06 10:05:45;;;;;;;;;2.67;2.00;;;;;22.91;43.91;100204.13;5059952;28;45533;-51
2021/07/06 10:08:11;;;;;;;;;1.33;1.33;;;;;22.88;43.67;100218.78;5042670;28;45383;-54
2021/07/06 10:10:38;;;;;;;;;1.67;1.67;;;;;22.82;43.38;100207.53;5059658;28;45504;-50
2021/07/06 10:13:04;;;;;;;;;1.33;1.33;;;;;22.77;43.03;100210.63;5060513;28;45370;-47
2021/07/06 10:15:31;;;;;;;;;2.00;2.00;;;;;22.77;43.54;100231.41;5041981;28;47756;-51
2021/07/06 10:17:57;;;;;;;;;1.67;1.67;;;;;22.75;43.41;100219.88;5060381;28;45566;-52
2021/07/06 10:20:35;;;;;;;;;2.00;1.00;;;;;22.74;43.18;100221.72;5060011;28;45331;-54
2021/07/06 10:23:01;;;;;;;;;0.00;0.00;;;;;22.78;43.16;100234.00;5060476;28;45315;-48
2021/07/06 10:25:33;;;;;;;;;1.67;1.67;;;;;22.76;43.45;100225.16;5059937;28;47844;-50
2021/07/06 10:28:03;;;;;;;;;1.00;1.00;;;;;22.84;43.29;100224.53;5060644;28;45414;-47
2021/07/06 10:30:39;;;;;;;;;2.00;2.00;;;;;22.92;43.25;100224.78;5060640;28;45451;-49
2021/07/06 10:33:12;;;;;;;;;2.00;2.00;;;;;22.97;42.99;100238.81;5060226;28;45350;-50
2021/07/06 10:35:41;;;;;;;;;3.00;1.33;;;;;23.00;42.95;100237.72;5042106;28;48215;-50
2021/07/06 10:38:28;;;;;;;;;1.33;1.33;;;;;23.05;42.66;100228.22;5059849;28;45547;-48
2021/07/06 10:41:01;;;;;;;;;1.00;1.00;;;;;23.07;43.00;100226.25;5059952;28;45453;-48
2021/07/06 10:43:35;;;;;;;;;2.33;2.00;;;;;23.11;42.54;100248.50;5042534;28;45461;-49
2021/07/06 10:46:16;;;;;;;;;1.33;1.33;;;;;23.17;42.62;100239.91;5052137;28;47506;-49
2021/07/06 10:49:03;;;;;;;;;3.00;3.00;;;;;23.23;42.40;100246.66;5059486;28;46079;-48
2021/07/06 10:51:38;;;;;;;;;4.00;2.00;;;;;23.25;42.53;100260.91;5059783;28;45719;-47
2021/07/06 10:54:05;;;;;;;;;1.00;1.00;;;;;23.31;42.33;100241.47;5041613;28;45501;-47
2021/07/06 10:56:42;;;;;;;;;1.00;1.00;;;;;23.33;42.17;100247.63;5058195;28;47787;-49
2021/07/06 10:59:23;;;;;;;;;2.00;2.00;;;;;23.32;41.93;100252.19;5059408;28;46154;-49
2021/07/06 11:01:48;;;;;;;;;2.67;1.00;;;;;23.30;42.29;100254.16;5041675;28;45422;-51
2021/07/06 11:07:05;;;;;;;;;2.67;2.00;;;;;23.25;42.04;100263.63;5059379;28;48475;-48
2021/07/06 11:09:32;;;;;;;;;1.33;1.33;;;;;23.24;42.33;100260.06;5040949;28;45430;-49
2021/07/06 11:12:19;;;;;;;;;4.00;4.00;;;;;23.30;42.29;100250.59;5058953;28;45344;-51
2021/07/06 11:14:49;;;;;;;;;0.33;0.33;;;;;23.38;42.31;100254.41;5059409;28;45664;-51
2021/07/06 11:17:41;;;;;;;;;2.00;2.00;;;;;23.44;42.04;100258.44;5058892;28;47372;-50
2021/07/06 11:20:10;;;;;;;;;1.33;1.33;;;;;23.49;41.75;100261.59;5041102;28;45641;-52
2021/07/06 11:22:55;;;;;;;;;2.00;2.00;;;;;23.57;41.62;100258.28;5058684;28;45333;-46
2021/07/06 11:25:25;;;;;;;;;0.67;0.67;;;;;23.63;41.43;100255.06;5058788;28;45278;-49
2021/07/06 11:28:01;;;;;;;;;1.00;1.00;;;;;23.61;41.19;100262.47;5040550;28;47441;-51
2021/07/06 11:30:27;;;;;;;;;2.00;2.00;;;;;23.55;41.33;100262.97;5058643;28;45378;-49
2021/07/06 11:33:12;;;;;;;;;1.00;1.00;;;;;23.53;41.22;100267.66;5056642;28;45363;-51